Time;durP1;ratioP1;P1;durP2;ratioP2;P2;SDS_P1;SDS_P2;PMS_P1;PMS_P2;Temp;Humidity;BMP_temperature;BMP_pressure;BME280_temperature;BME280_humidity;BME280_pressure;Samples;Min_cycle;Max_cycle;Signal;HPM_P1;HPM_P2
2022/04/24 00:00:02;;;;;;;5.10;3.50;;;12.40;90.00;;;;;;5035499;28;20479;-85
2022/04/24 00:02:28;;;;;;;4.00;2.83;;;12.40;90.20;;;;;;5034970;28;20045;-85
2022/04/24 00:04:54;;;;;;;3.95;3.10;;;12.40;90.20;;;;;;5035366;28;20431;-85
2022/04/24 00:07:19;;;;;;;4.45;3.30;;;12.40;90.20;;;;;;5035853;28;20086;-86
2022/04/24 00:09:45;;;;;;;5.85;4.03;;;12.30;90.20;;;;;;5035485;28;20483;-85
2022/04/24 00:12:16;;;;;;;4.82;4.28;;;12.40;90.30;;;;;;5053563;28;20498;-86
2022/04/24 00:14:45;;;;;;;4.65;3.60;;;12.30;90.10;;;;;;5035937;28;20026;-86
2022/04/24 00:17:12;;;;;;;5.63;3.55;;;12.30;90.20;;;;;;5035150;28;20535;-86
2022/04/24 00:19:38;;;;;;;4.45;3.15;;;12.20;90.30;;;;;;5053437;28;20056;-85
2022/04/24 00:22:03;;;;;;;6.10;4.22;;;12.10;90.50;;;;;;5034982;28;20076;-87
2022/04/24 00:24:29;;;;;;;4.63;3.97;;;12.10;90.60;;;;;;5035112;28;20040;-85
2022/04/24 00:26:55;;;;;;;4.93;4.38;;;12.00;90.70;;;;;;5034981;28;20028;-85
2022/04/24 00:29:21;;;;;;;5.13;4.35;;;11.90;90.80;;;;;;5053104;28;20387;-86
2022/04/24 00:31:47;;;;;;;6.30;4.07;;;11.90;90.90;;;;;;5035209;28;20044;-85
2022/04/24 00:34:13;;;;;;;6.45;4.22;;;11.80;91.00;;;;;;5035271;28;20135;-86
2022/04/24 00:36:39;;;;;;;5.30;4.13;;;11.80;91.10;;;;;;5035222;28;20503;-86
2022/04/24 00:39:05;;;;;;;5.45;4.70;;;11.80;91.30;;;;;;5052703;28;20037;-85
2022/04/24 00:41:30;;;;;;;5.85;4.65;;;11.70;91.60;;;;;;5034852;28;20033;-85
2022/04/24 00:43:56;;;;;;;5.93;4.50;;;11.70;91.20;;;;;;5035275;28;20394;-85
2022/04/24 00:46:55;;;;;;;5.90;4.35;;;11.70;91.30;;;;;;5035062;28;20098;-85
2022/04/24 00:49:21;;;;;;;6.03;4.90;;;11.70;91.40;;;;;;5035074;28;20071;-82
2022/04/24 00:51:47;;;;;;;8.27;5.20;;;11.60;91.50;;;;;;5035117;28;20021;-83
2022/04/24 00:54:13;;;;;;;6.03;4.88;;;11.60;91.60;;;;;;5034525;28;20029;-85
2022/04/24 00:56:41;;;;;;;6.60;5.28;;;11.60;91.50;;;;;;5034310;28;20036;-85
2022/04/24 00:59:10;;;;;;;6.68;5.32;;;11.60;91.60;;;;;;5052653;28;20095;-83
2022/04/24 01:01:36;;;;;;;7.07;5.55;;;11.50;91.70;;;;;;5052407;28;20363;-83
2022/04/24 01:04:05;;;;;;;7.75;5.22;;;11.50;91.80;;;;;;5034660;28;20029;-86
2022/04/24 01:06:33;;;;;;;7.35;5.38;;;11.50;91.80;;;;;;5034898;28;20037;-83
2022/04/24 01:09:14;;;;;;;9.18;6.03;;;11.40;92.00;;;;;;5034839;28;20025;-83
2022/04/24 01:11:40;;;;;;;6.70;5.75;;;11.40;92.10;;;;;;5034684;28;20036;-84
2022/04/24 01:14:06;;;;;;;5.85;5.25;;;11.40;92.30;;;;;;5052427;28;20037;-85
2022/04/24 01:16:32;;;;;;;6.25;5.38;;;11.40;92.40;;;;;;5034567;28;20036;-84
2022/04/24 01:18:59;;;;;;;5.65;4.82;;;11.30;92.30;;;;;;5052766;28;20043;-86
2022/04/24 01:21:24;;;;;;;7.50;5.90;;;11.30;92.40;;;;;;5052630;28;20098;-84
2022/04/24 01:23:50;;;;;;;6.53;5.38;;;11.30;92.80;;;;;;5034355;28;20063;-84
2022/04/24 01:26:15;;;;;;;7.25;5.50;;;11.20;92.60;;;;;;5034040;28;20080;-84
2022/04/24 01:28:41;;;;;;;7.38;5.78;;;11.20;92.70;;;;;;5054467;28;20049;-84
2022/04/24 01:31:07;;;;;;;6.88;5.70;;;11.20;92.80;;;;;;5037711;28;20044;-84
2022/04/24 01:33:32;;;;;;;7.10;6.32;;;11.10;92.90;;;;;;5037926;28;20116;-85
2022/04/24 01:35:58;;;;;;;6.75;5.80;;;11.10;92.90;;;;;;5056253;28;20052;-84
2022/04/24 01:38:24;;;;;;;7.32;5.30;;;11.10;93.00;;;;;;5038646;28;20025;-82
2022/04/24 01:40:50;;;;;;;7.72;6.45;;;11.10;93.10;;;;;;5038371;28;20059;-84
2022/04/24 01:43:16;;;;;;;7.05;5.60;;;11.10;93.50;;;;;;5056253;28;20048;-85
2022/04/24 01:45:43;;;;;;;7.03;5.43;;;11.10;93.60;;;;;;5038357;28;20025;-85
2022/04/24 01:48:09;;;;;;;7.90;6.18;;;11.10;93.40;;;;;;5038016;28;20051;-85
2022/04/24 01:50:34;;;;;;;8.70;5.63;;;11.10;93.40;;;;;;5055528;28;20493;-85
2022/04/24 01:53:00;;;;;;;8.10;6.57;;;11.00;93.40;;;;;;5055552;28;20033;-84
2022/04/24 01:55:26;;;;;;;8.18;6.15;;;11.00;93.60;;;;;;5037479;28;20678;-84
2022/04/24 01:57:52;;;;;;;7.93;6.50;;;11.00;93.70;;;;;;5037516;28;20044;-84
2022/04/24 02:00:18;;;;;;;8.55;6.68;;;11.00;93.90;;;;;;5037303;28;20029;-85
2022/04/24 02:02:44;;;;;;;9.32;6.78;;;10.90;94.00;;;;;;5037512;28;20088;-84
2022/04/24 02:05:09;;;;;;;8.00;6.28;;;10.90;94.20;;;;;;5038929;28;20033;-83
2022/04/24 02:07:35;;;;;;;7.70;6.75;;;10.90;94.30;;;;;;5040279;28;20449;-84
2022/04/24 02:10:00;;;;;;;8.00;7.20;;;10.80;94.40;;;;;;5037545;28;20580;-85
2022/04/24 02:12:26;;;;;;;8.82;6.88;;;10.80;94.70;;;;;;5055152;28;20047;-82
2022/04/24 02:14:52;;;;;;;8.00;6.75;;;10.70;94.80;;;;;;5037549;28;20029;-83
2022/04/24 02:17:17;;;;;;;9.38;6.55;;;10.70;95.20;;;;;;5054986;28;20036;-85
2022/04/24 02:19:43;;;;;;;8.55;7.05;;;10.70;95.40;;;;;;5037636;28;20471;-83
2022/04/24 02:22:08;;;;;;;9.52;7.43;;;10.70;95.30;;;;;;5037355;28;20059;-83
2022/04/24 02:24:34;;;;;;;9.18;7.63;;;10.60;95.50;;;;;;5037046;28;20529;-83
2022/04/24 02:27:00;;;;;;;9.05;7.45;;;10.60;95.70;;;;;;5036598;28;20120;-84
2022/04/24 02:29:27;;;;;;;9.43;7.82;;;10.50;95.70;;;;;;5036748;28;20045;-84
2022/04/24 02:31:52;;;;;;;9.48;7.68;;;10.50;95.90;;;;;;5037069;28;20064;-84
2022/04/24 02:34:18;;;;;;;9.70;7.75;;;10.50;96.00;;;;;;5036801;28;20036;-83
2022/04/24 02:36:46;;;;;;;10.15;7.70;;;10.50;96.10;;;;;;5036469;28;20029;-83
2022/04/24 02:39:12;;;;;;;10.27;7.30;;;10.40;96.20;;;;;;5020036;28;20041;-84
2022/04/24 02:41:38;;;;;;;9.05;7.05;;;10.40;96.40;;;;;;5036494;28;20051;-83
2022/04/24 02:44:04;;;;;;;9.88;8.85;;;10.40;96.50;;;;;;5036484;28;20037;-82
2022/04/24 02:46:29;;;;;;;11.38;8.32;;;10.40;96.60;;;;;;5054228;28;20437;-84
2022/04/24 02:48:55;;;;;;;8.95;7.13;;;10.30;96.80;;;;;;5036761;28;20475;-83
2022/04/24 02:51:20;;;;;;;9.60;7.65;;;10.30;96.80;;;;;;5054044;28;20029;-83
2022/04/24 02:53:46;;;;;;;8.48;6.60;;;10.30;96.90;;;;;;5036102;28;20079;-83
2022/04/24 02:56:12;;;;;;;8.18;6.38;;;10.30;97.00;;;;;;5036055;28;20121;-82
2022/04/24 02:58:40;;;;;;;9.75;7.22;;;10.20;97.20;;;;;;5036338;28;20029;-84
2022/04/24 03:01:06;;;;;;;9.68;6.97;;;10.20;97.20;;;;;;5035958;28;20090;-83
2022/04/24 03:03:31;;;;;;;9.02;7.32;;;10.20;97.30;;;;;;5036062;28;20041;-83
2022/04/24 03:05:58;;;;;;;9.52;7.38;;;10.20;97.40;;;;;;5036510;28;20025;-82
2022/04/24 03:08:24;;;;;;;8.85;6.70;;;10.10;97.40;;;;;;5053708;28;20055;-83
2022/04/24 03:10:50;;;;;;;8.60;6.53;;;10.10;97.50;;;;;;5036088;28;20040;-82
2022/04/24 03:13:15;;;;;;;9.77;7.35;;;10.10;97.60;;;;;;5035974;28;20483;-84
2022/04/24 03:15:41;;;;;;;8.88;6.82;;;10.10;97.70;;;;;;5053733;28;20041;-83
2022/04/24 03:18:07;;;;;;;9.18;7.05;;;10.00;97.70;;;;;;5035751;28;20142;-83
2022/04/24 03:20:33;;;;;;;9.27;7.10;;;10.00;98.00;;;;;;5035716;28;20035;-82
2022/04/24 03:22:58;;;;;;;10.40;7.10;;;10.00;98.20;;;;;;5053500;28;20040;-83
2022/04/24 03:25:24;;;;;;;7.28;5.93;;;10.00;98.00;;;;;;5053531;28;20083;-83
2022/04/24 03:27:50;;;;;;;8.73;6.75;;;10.00;98.00;;;;;;5035457;28;20040;-82
2022/04/24 03:30:15;;;;;;;10.27;6.90;;;9.90;98.10;;;;;;5053425;28;20053;-83
2022/04/24 03:32:41;;;;;;;8.05;6.40;;;9.90;98.20;;;;;;5053847;28;20079;-83
2022/04/24 03:35:09;;;;;;;10.63;6.70;;;9.90;98.20;;;;;;5035584;28;20029;-82
2022/04/24 03:37:38;;;;;;;8.55;6.05;;;9.90;98.30;;;;;;5053300;28;20111;-83
2022/04/24 03:40:05;;;;;;;9.10;6.50;;;9.80;98.40;;;;;;5053232;28;20041;-83
2022/04/24 03:42:32;;;;;;;7.60;6.07;;;9.80;98.50;;;;;;5035498;28;20103;-84
2022/04/24 03:44:58;;;;;;;8.38;5.97;;;9.80;98.60;;;;;;5053357;28;20036;-84
2022/04/24 03:47:24;;;;;;;8.60;5.97;;;9.70;98.60;;;;;;5035531;28;20021;-84
2022/04/24 03:49:49;;;;;;;6.63;5.68;;;9.70;98.70;;;;;;5035229;28;20610;-83
2022/04/24 03:52:15;;;;;;;7.40;5.68;;;9.70;99.30;;;;;;5053121;28;20112;-83
2022/04/24 03:54:41;;;;;;;7.32;5.95;;;9.70;99.00;;;;;;5053255;28;20533;-83
2022/04/24 03:57:07;;;;;;;8.52;6.05;;;9.70;99.00;;;;;;5035190;28;20029;-82
2022/04/24 03:59:33;;;;;;;7.68;6.55;;;9.60;99.10;;;;;;5053809;28;20084;-83
2022/04/24 04:01:59;;;;;;;8.63;6.43;;;9.70;99.10;;;;;;5035434;28;20490;-84
2022/04/24 04:04:27;;;;;;;12.02;7.63;;;9.60;99.10;;;;;;5053382;28;20506;-85
2022/04/24 04:06:53;;;;;;;8.25;6.13;;;9.70;99.30;;;;;;5035656;28;20146;-83
2022/04/24 04:09:19;;;;;;;8.88;6.20;;;9.60;99.30;;;;;;5053164;28;20123;-83
2022/04/24 04:11:45;;;;;;;10.45;6.47;;;9.60;99.40;;;;;;5053683;28;20033;-83
2022/04/24 04:14:10;;;;;;;8.10;6.13;;;9.60;99.50;;;;;;5036107;28;20041;-84
2022/04/24 04:16:36;;;;;;;7.53;5.88;;;9.50;99.50;;;;;;5036124;28;20032;-83
2022/04/24 04:19:02;;;;;;;8.23;6.13;;;9.50;99.80;;;;;;5035662;28;20394;-83
2022/04/24 04:21:28;;;;;;;10.80;6.20;;;9.50;99.60;;;;;;5055655;28;20029;-82
2022/04/24 04:23:53;;;;;;;8.55;6.32;;;9.40;99.70;;;;;;5022137;28;20494;-83
2022/04/24 04:26:19;;;;;;;6.97;5.90;;;9.40;99.80;;;;;;5036739;28;20029;-84
2022/04/24 04:28:46;;;;;;;8.45;5.68;;;9.40;99.90;;;;;;5038120;28;20068;-85
2022/04/24 04:31:13;;;;;;;7.63;6.03;;;9.30;99.90;;;;;;5041150;28;20038;-84
2022/04/24 04:33:38;;;;;;;7.88;6.30;;;9.40;99.90;;;;;;5059514;28;20035;-84
2022/04/24 04:36:05;;;;;;;7.13;5.53;;;9.30;99.90;;;;;;5050376;28;20033;-83
2022/04/24 04:38:30;;;;;;;8.90;6.35;;;9.30;99.90;;;;;;5051149;28;20033;-82
2022/04/24 04:40:56;;;;;;;8.55;6.30;;;9.30;99.90;;;;;;5050608;28;20067;-83
2022/04/24 04:43:21;;;;;;;6.68;5.38;;;9.30;99.90;;;;;;5066655;28;20053;-82
2022/04/24 04:45:48;;;;;;;7.60;5.50;;;9.20;99.90;;;;;;5063747;28;20051;-82
2022/04/24 04:48:14;;;;;;;7.35;5.65;;;9.20;99.90;;;;;;5043086;28;20029;-83
2022/04/24 04:50:40;;;;;;;8.55;6.07;;;9.20;99.90;;;;;;5041838;28;20056;-83
2022/04/24 04:53:05;;;;;;;7.45;6.05;;;9.20;99.90;;;;;;5045934;28;20471;-83
2022/04/24 04:55:31;;;;;;;7.45;5.72;;;9.20;99.90;;;;;;5044361;28;20029;-83
2022/04/24 04:57:58;;;;;;;7.63;5.82;;;9.20;99.90;;;;;;5058023;28;20037;-84
2022/04/24 05:00:24;;;;;;;7.55;5.93;;;9.20;99.90;;;;;;5058127;28;20036;-82
2022/04/24 05:02:50;;;;;;;7.88;6.10;;;9.20;99.90;;;;;;5059803;28;20056;-82
2022/04/24 05:05:16;;;;;;;6.80;5.43;;;9.10;99.90;;;;;;5059785;28;20028;-84
2022/04/24 05:07:41;;;;;;;6.22;5.03;;;9.20;99.90;;;;;;5043790;28;20386;-83
2022/04/24 05:10:08;;;;;;;8.45;5.97;;;9.20;99.90;;;;;;5041739;28;20072;-84
2022/04/24 05:12:34;;;;;;;8.80;5.68;;;9.20;99.90;;;;;;5040089;28;20032;-83
2022/04/24 05:15:07;;;;;;;7.35;5.63;;;9.10;99.90;;;;;;5039026;28;20413;-82
2022/04/24 05:17:35;;;;;;;9.13;6.45;;;9.20;99.90;;;;;;5038561;28;20037;-83
2022/04/24 05:20:01;;;;;;;7.65;5.80;;;9.20;99.90;;;;;;5056440;28;20044;-83
2022/04/24 05:22:27;;;;;;;7.35;5.47;;;9.20;99.90;;;;;;5056545;28;20044;-83
2022/04/24 05:24:53;;;;;;;7.75;5.85;;;9.20;99.90;;;;;;5038687;28;20041;-83
2022/04/24 05:27:19;;;;;;;7.72;5.70;;;9.20;99.90;;;;;;5056182;28;20041;-83
2022/04/24 05:29:47;;;;;;;8.32;5.60;;;9.30;99.90;;;;;;5037895;28;20051;-83
2022/04/24 05:32:13;;;;;;;6.63;5.53;;;9.30;99.90;;;;;;5038243;28;20036;-84
2022/04/24 05:34:39;;;;;;;6.97;5.15;;;9.30;99.90;;;;;;5038213;28;20033;-83
2022/04/24 05:37:05;;;;;;;11.25;6.10;;;9.30;99.90;;;;;;5038417;28;20132;-83
2022/04/24 05:39:31;;;;;;;7.53;5.70;;;9.30;99.90;;;;;;5056230;28;20088;-84
2022/04/24 05:41:57;;;;;;;7.53;5.70;;;9.40;99.90;;;;;;5038406;28;20047;-83
2022/04/24 05:44:22;;;;;;;6.40;5.30;;;9.50;99.90;;;;;;5038139;28;20119;-83
2022/04/24 05:46:48;;;;;;;6.40;5.50;;;9.40;99.90;;;;;;5038425;28;20365;-83
2022/04/24 05:49:13;;;;;;;6.60;4.78;;;9.50;99.90;;;;;;5038160;28;20441;-83
2022/04/24 05:51:39;;;;;;;7.60;5.20;;;9.50;99.90;;;;;;5056223;28;20390;-84
2022/04/24 05:54:05;;;;;;;7.47;5.88;;;9.50;99.90;;;;;;5038276;28;20049;-86
2022/04/24 05:56:30;;;;;;;7.28;5.22;;;9.50;99.90;;;;;;5038718;28;20501;-82
2022/04/24 05:58:56;;;;;;;7.82;5.90;;;9.60;99.90;;;;;;5039032;28;20136;-82
2022/04/24 06:01:21;;;;;;;8.30;5.97;;;9.60;99.90;;;;;;5055956;28;20065;-83
2022/04/24 06:03:48;;;;;;;9.05;5.30;;;9.60;99.90;;;;;;5037550;28;20063;-82
2022/04/24 06:06:13;;;;;;;6.43;5.10;;;9.60;99.90;;;;;;5037445;28;20035;-84
2022/04/24 06:08:39;;;;;;;10.20;5.28;;;9.70;99.90;;;;;;5037886;28;20124;-84
2022/04/24 06:11:05;;;;;;;7.82;4.95;;;9.70;99.90;;;;;;5037966;28;20072;-84
2022/04/24 06:13:31;;;;;;;7.57;5.30;;;9.80;99.90;;;;;;5037144;28;20037;-83
2022/04/24 06:15:57;;;;;;;6.88;4.47;;;9.80;99.90;;;;;;5037849;28;20048;-83
2022/04/24 06:18:29;;;;;;;5.97;4.50;;;9.90;99.90;;;;;;5055054;28;20418;-83
2022/04/24 06:20:55;;;;;;;5.93;4.50;;;10.00;99.90;;;;;;5037665;28;20529;-84
2022/04/24 06:23:21;;;;;;;6.22;4.43;;;10.00;99.90;;;;;;5036756;28;20080;-82
2022/04/24 06:25:47;;;;;;;6.28;4.53;;;10.10;99.90;;;;;;5036166;28;20422;-81
2022/04/24 06:28:13;;;;;;;5.47;4.38;;;10.30;99.90;;;;;;5032233;28;20045;-82
2022/04/24 06:30:42;;;;;;;6.00;4.78;;;10.30;99.90;;;;;;5032927;28;20075;-83
2022/04/24 06:33:09;;;;;;;5.63;4.20;;;10.50;99.90;;;;;;5033164;28;20763;-82
2022/04/24 06:35:34;;;;;;;6.57;4.45;;;10.60;99.80;;;;;;5053546;28;20109;-82
2022/04/24 06:38:00;;;;;;;6.13;4.70;;;10.70;99.60;;;;;;5034832;28;20123;-83
2022/04/24 06:40:26;;;;;;;6.95;4.82;;;10.80;99.60;;;;;;5033762;28;20044;-82
2022/04/24 06:42:57;;;;;;;8.75;4.75;;;10.80;99.40;;;;;;5051624;28;20059;-83
2022/04/24 06:45:43;;;;;;;6.03;4.32;;;10.80;99.20;;;;;;5034761;28;20029;-83
2022/04/24 06:48:13;;;;;;;6.13;4.68;;;10.90;99.20;;;;;;5034315;28;20029;-84
2022/04/24 06:50:43;;;;;;;6.10;4.22;;;11.00;99.00;;;;;;5034192;28;20033;-82
2022/04/24 06:53:13;;;;;;;5.60;4.30;;;11.10;99.00;;;;;;5033620;28;20075;-83
2022/04/24 06:55:41;;;;;;;5.10;3.83;;;11.10;99.10;;;;;;5033137;28;20036;-82
2022/04/24 06:58:09;;;;;;;6.07;4.88;;;11.20;99.10;;;;;;5016835;28;20824;-83
2022/04/24 07:00:37;;;;;;;6.32;4.55;;;11.20;99.00;;;;;;5032808;28;20029;-82
2022/04/24 07:03:18;;;;;;;5.90;4.90;;;11.30;99.00;;;;;;5032964;28;20124;-83
2022/04/24 07:05:44;;;;;;;8.05;4.93;;;11.30;98.80;;;;;;5033242;28;20037;-85
2022/04/24 07:08:10;;;;;;;7.50;4.80;;;11.40;99.00;;;;;;5034238;28;20025;-86
2022/04/24 07:10:37;;;;;;;5.60;4.65;;;11.40;98.60;;;;;;5034649;28;20044;-85
2022/04/24 07:13:03;;;;;;;7.15;4.75;;;11.40;98.60;;;;;;5051964;28;20136;-85
2022/04/24 07:15:35;;;;;;;6.18;4.70;;;11.50;98.50;;;;;;5033552;28;20086;-84
2022/04/24 07:18:02;;;;;;;7.10;4.55;;;11.50;98.40;;;;;;5033763;28;20037;-85
2022/04/24 07:20:29;;;;;;;6.75;5.00;;;11.50;98.30;;;;;;5033663;28;20495;-85
2022/04/24 07:23:03;;;;;;;6.20;4.88;;;11.50;98.10;;;;;;5033352;28;20051;-84
2022/04/24 07:25:39;;;;;;;6.70;4.70;;;11.50;98.10;;;;;;5032209;28;20061;-83
2022/04/24 07:28:05;;;;;;;6.40;5.22;;;11.60;98.20;;;;;;5050348;28;20502;-84
2022/04/24 07:30:30;;;;;;;8.02;5.18;;;11.70;97.70;;;;;;5032380;28;20068;-84
2022/04/24 07:32:57;;;;;;;6.90;4.70;;;11.70;98.00;;;;;;5031902;28;20129;-83
2022/04/24 07:35:35;;;;;;;6.90;5.25;;;11.70;97.80;;;;;;5031898;28;20159;-82
2022/04/24 07:38:01;;;;;;;7.07;5.70;;;11.80;97.80;;;;;;5032504;28;20041;-83
2022/04/24 07:40:29;;;;;;;7.45;5.05;;;11.80;97.60;;;;;;5032345;28;20056;-82
2022/04/24 07:43:00;;;;;;;6.35;5.15;;;11.90;97.60;;;;;;5055374;28;20037;-83
2022/04/24 07:45:29;;;;;;;9.05;5.05;;;12.00;97.40;;;;;;5040275;28;20033;-83
2022/04/24 07:47:55;;;;;;;6.38;5.18;;;12.00;97.40;;;;;;5034701;28;20033;-83
2022/04/24 07:50:23;;;;;;;6.07;4.95;;;12.00;97.30;;;;;;5033346;28;20124;-82
2022/04/24 07:52:50;;;;;;;6.95;4.65;;;12.10;97.20;;;;;;5050577;28;20033;-81
2022/04/24 07:55:17;;;;;;;6.45;5.25;;;12.10;97.20;;;;;;5034669;28;20029;-82
2022/04/24 07:57:49;;;;;;;5.90;4.47;;;12.20;97.30;;;;;;5035318;28;20033;-81
2022/04/24 08:00:17;;;;;;;9.15;5.10;;;12.20;97.30;;;;;;5035938;28;20036;-82
2022/04/24 08:02:47;;;;;;;5.75;4.72;;;12.30;97.00;;;;;;5035861;28;20041;-82
2022/04/24 08:05:18;;;;;;;6.78;5.32;;;12.40;97.00;;;;;;5035494;28;20064;-83
2022/04/24 08:07:44;;;;;;;8.30;5.55;;;12.40;96.80;;;;;;5053303;28;20059;-84
2022/04/24 08:10:10;;;;;;;7.43;4.90;;;12.50;96.70;;;;;;5035963;28;20029;-84
2022/04/24 08:12:35;;;;;;;7.10;4.85;;;12.50;96.80;;;;;;5054160;28;20402;-83
2022/04/24 08:15:01;;;;;;;6.57;4.60;;;12.60;96.90;;;;;;5036136;28;20513;-83
2022/04/24 08:17:27;;;;;;;7.88;4.82;;;12.70;96.80;;;;;;5053484;28;20048;-84
2022/04/24 08:19:52;;;;;;;7.43;4.78;;;12.80;96.50;;;;;;5053339;28;20108;-85
2022/04/24 08:22:18;;;;;;;7.43;5.25;;;12.80;96.50;;;;;;5035445;28;20045;-84
2022/04/24 08:24:44;;;;;;;9.30;5.60;;;12.90;96.20;;;;;;5053031;28;20077;-85
2022/04/24 08:27:09;;;;;;;8.23;5.93;;;12.90;96.10;;;;;;5035013;28;20033;-84
2022/04/24 08:29:35;;;;;;;8.27;5.68;;;13.00;95.90;;;;;;5035217;28;20052;-84
2022/04/24 08:32:01;;;;;;;6.38;5.13;;;13.00;95.90;;;;;;5034848;28;20025;-85
2022/04/24 08:34:26;;;;;;;5.40;4.13;;;13.10;96.00;;;;;;5035148;28;20140;-84
2022/04/24 08:36:52;;;;;;;9.63;5.63;;;13.20;96.10;;;;;;5033869;28;20128;-86
2022/04/24 08:39:18;;;;;;;6.63;4.90;;;13.30;95.80;;;;;;5026975;28;20060;-87
2022/04/24 08:41:44;;;;;;;6.72;5.35;;;13.40;95.80;;;;;;5029723;28;20053;-90
2022/04/24 08:44:10;;;;;;;7.32;5.50;;;13.50;95.80;;;;;;5020077;28;20029;-87
2022/04/24 08:46:36;;;;;;;6.50;4.88;;;13.70;95.70;;;;;;5019806;28;20029;-86
2022/04/24 08:49:02;;;;;;;5.55;4.03;;;13.80;95.60;;;;;;5039175;28;20033;-85
2022/04/24 08:51:28;;;;;;;6.78;5.38;;;13.90;95.60;;;;;;5030312;28;20043;-84
2022/04/24 08:53:56;;;;;;;6.97;4.65;;;14.10;95.30;;;;;;5036920;28;20101;-85
2022/04/24 08:56:22;;;;;;;7.65;5.57;;;14.10;95.20;;;;;;5020885;28;20037;-85
2022/04/24 08:58:48;;;;;;;8.10;5.70;;;14.20;95.00;;;;;;5038792;28;20164;-86
2022/04/24 09:01:13;;;;;;;6.72;5.72;;;14.30;95.00;;;;;;5038816;28;20060;-86
2022/04/24 09:03:39;;;;;;;6.13;5.05;;;14.30;94.80;;;;;;5038724;28;20549;-85
2022/04/24 09:06:05;;;;;;;6.93;4.90;;;14.40;95.00;;;;;;5056494;28;20025;-85
2022/04/24 09:08:34;;;;;;;6.70;5.20;;;14.40;94.80;;;;;;5038534;28;20090;-85
2022/04/24 09:10:59;;;;;;;7.05;4.50;;;14.50;94.90;;;;;;5024917;28;20088;-84
2022/04/24 09:13:25;;;;;;;6.93;5.20;;;14.60;94.80;;;;;;5035840;28;20034;-84
2022/04/24 09:15:58;;;;;;;6.50;4.38;;;14.70;94.70;;;;;;5018489;28;20041;-84
2022/04/24 09:18:39;;;;;;;6.97;4.82;;;14.80;94.70;;;;;;5018542;28;20037;-85
2022/04/24 09:21:05;;;;;;;5.63;4.57;;;14.90;94.50;;;;;;5018258;28;20045;-84
2022/04/24 09:23:36;;;;;;;7.90;5.35;;;14.90;94.60;;;;;;5017705;28;20099;-84
2022/04/24 09:26:02;;;;;;;6.78;5.38;;;14.90;94.30;;;;;;5017952;28;20490;-87
2022/04/24 09:28:41;;;;;;;6.60;5.35;;;15.00;94.30;;;;;;5017998;28;20037;-85
2022/04/24 09:31:07;;;;;;;7.25;5.25;;;15.10;94.10;;;;;;5054893;28;20402;-85
2022/04/24 09:33:38;;;;;;;6.43;5.28;;;15.30;93.80;;;;;;5055794;28;20043;-82
2022/04/24 09:36:04;;;;;;;8.93;5.80;;;15.60;93.90;;;;;;5037963;28;20032;-83
2022/04/24 09:38:29;;;;;;;7.07;4.35;;;16.60;93.60;;;;;;5037867;28;20028;-83
2022/04/24 09:40:55;;;;;;;5.45;4.22;;;17.90;93.10;;;;;;5038203;28;20029;-82
2022/04/24 09:43:21;;;;;;;5.35;4.25;;;19.00;92.10;;;;;;5037572;28;20515;-84
2022/04/24 09:45:48;;;;;;;6.88;4.25;;;19.80;91.00;;;;;;5037944;28;20025;-83
2022/04/24 09:48:20;;;;;;;5.15;3.63;;;20.50;90.30;;;;;;5054985;28;20033;-82
2022/04/24 09:50:50;;;;;;;6.10;4.20;;;21.10;90.20;;;;;;5037591;28;20052;-83
2022/04/24 09:53:20;;;;;;;6.80;4.30;;;21.60;87.80;;;;;;5037250;28;20044;-84
2022/04/24 09:55:51;;;;;;;5.25;4.07;;;22.10;86.70;;;;;;5037573;28;20025;-83
2022/04/24 09:58:18;;;;;;;6.82;4.07;;;22.40;85.10;;;;;;5037102;28;20041;-83
2022/04/24 10:00:44;;;;;;;6.28;4.60;;;22.60;83.60;;;;;;5037089;28;20040;-83
2022/04/24 10:03:14;;;;;;;6.28;4.40;;;22.70;81.00;;;;;;5037454;28;20409;-83
2022/04/24 10:05:42;;;;;;;5.13;4.35;;;22.60;81.10;;;;;;5037562;28;20110;-83
2022/04/24 10:08:08;;;;;;;7.15;4.32;;;22.80;81.00;;;;;;5055290;28;20025;-84
2022/04/24 10:10:34;;;;;;;5.78;4.40;;;22.90;79.10;;;;;;5033119;28;20430;-83
2022/04/24 10:13:01;;;;;;;10.32;5.35;;;22.90;78.00;;;;;;5037178;28;20029;-84
2022/04/24 10:15:28;;;;;;;7.25;4.88;;;22.80;76.60;;;;;;5036457;28;20021;-83
2022/04/24 10:18:14;;;;;;;5.95;4.10;;;22.60;76.10;;;;;;5036857;28;20044;-84
2022/04/24 10:21:10;;;;;;;6.05;4.80;;;22.70;76.40;;;;;;5038580;28;20513;-83
2022/04/24 10:23:38;;;;;;;6.40;4.10;;;22.80;75.00;;;;;;5058034;28;20260;-82
2022/04/24 10:26:20;;;;;;;4.93;3.67;;;22.90;75.90;;;;;;5039163;28;20078;-83
2022/04/24 10:28:47;;;;;;;5.07;3.30;;;23.30;75.20;;;;;;5040593;28;20041;-86
2022/04/24 10:31:14;;;;;;;5.82;3.50;;;23.60;74.90;;;;;;5038501;28;20099;-84
2022/04/24 10:33:52;;;;;;;5.18;3.35;;;24.10;74.90;;;;;;5036419;28;20117;-85
2022/04/24 10:36:19;;;;;;;5.38;4.00;;;24.40;73.90;;;;;;5054823;28;20483;-84
2022/04/24 10:38:57;;;;;;;4.97;4.03;;;24.40;72.10;;;;;;5036137;28;20437;-81
2022/04/24 10:41:29;;;;;;;5.78;3.72;;;24.30;71.10;;;;;;5072146;28;20066;-85
2022/04/24 10:44:06;;;;;;;4.70;3.60;;;24.40;71.00;;;;;;5073643;28;20040;-83
2022/04/24 10:46:35;;;;;;;7.35;4.43;;;24.50;71.20;;;;;;5056618;28;20095;-85
2022/04/24 10:49:14;;;;;;;4.72;3.90;;;24.60;69.50;;;;;;5052449;28;20052;-86
2022/04/24 10:51:43;;;;;;;5.35;2.83;;;24.60;69.30;;;;;;5036275;28;20029;-88
2022/04/24 10:54:13;;;;;;;4.43;3.28;;;24.60;69.60;;;;;;5036709;28;20033;-84
2022/04/24 10:56:49;;;;;;;4.32;3.45;;;24.70;69.40;;;;;;5036711;28;20036;-87
2022/04/24 10:59:18;;;;;;;4.18;3.03;;;25.00;69.30;;;;;;5033729;28;20495;-86
2022/04/24 11:01:47;;;;;;;6.38;4.63;;;25.00;68.70;;;;;;5054278;28;20061;-86
2022/04/24 11:04:14;;;;;;;5.10;3.40;;;24.80;66.50;;;;;;5036283;28;20090;-84
2022/04/24 11:06:56;;;;;;;3.72;2.97;;;24.50;67.10;;;;;;5035698;28;20040;-85
2022/04/24 11:09:23;;;;;;;4.45;2.83;;;24.60;67.70;;;;;;5019996;28;20053;-85
2022/04/24 11:11:57;;;;;;;4.03;2.90;;;24.90;68.00;;;;;;5037063;28;20036;-84
2022/04/24 11:14:28;;;;;;;4.05;3.40;;;25.40;68.20;;;;;;5054206;28;20043;-85
2022/04/24 11:16:57;;;;;;;4.38;3.22;;;25.80;66.30;;;;;;5053332;28;20022;-83
2022/04/24 11:19:27;;;;;;;4.82;2.97;;;25.70;65.50;;;;;;5053659;28;20040;-83
2022/04/24 11:22:12;;;;;;;3.78;2.80;;;25.70;65.20;;;;;;5054056;28;20031;-85
2022/04/24 11:24:39;;;;;;;5.32;3.22;;;26.00;65.80;;;;;;5036068;28;20055;-86
2022/04/24 11:27:11;;;;;;;4.82;3.45;;;26.10;65.00;;;;;;5035561;28;20025;-85
2022/04/24 11:29:38;;;;;;;6.00;3.13;;;25.90;64.90;;;;;;5053543;28;20536;-84
2022/04/24 11:32:08;;;;;;;5.38;3.28;;;25.80;65.30;;;;;;5035438;28;20037;-84
2022/04/24 11:34:35;;;;;;;4.57;3.28;;;25.90;65.00;;;;;;5053161;28;20430;-87
2022/04/24 11:37:01;;;;;;;6.00;3.78;;;25.80;64.40;;;;;;5053916;28;20112;-86
2022/04/24 11:39:28;;;;;;;6.68;3.60;;;25.70;64.10;;;;;;5053576;28;20029;-86
2022/04/24 11:42:03;;;;;;;5.60;3.30;;;25.70;64.00;;;;;;5054190;28;20029;-84
2022/04/24 11:50:15;;;;;;;4.63;3.50;;;24.60;64.30;;;;;;5053623;28;20159;-86
2022/04/24 11:52:40;;;;;;;5.18;3.15;;;25.00;63.80;;;;;;5035518;28;20462;-84
2022/04/24 11:55:16;;;;;;;4.38;2.97;;;25.20;63.00;;;;;;5053397;28;20044;-84
2022/04/24 11:57:43;;;;;;;5.60;3.53;;;25.00;63.20;;;;;;5032775;28;20032;-89
2022/04/24 12:00:12;;;;;;;3.63;2.80;;;24.40;63.10;;;;;;5051939;28;20060;-84
2022/04/24 12:02:38;;;;;;;4.68;3.17;;;24.30;64.20;;;;;;5052498;28;20167;-86
2022/04/24 12:05:09;;;;;;;4.50;3.13;;;24.70;64.10;;;;;;5026146;28;20041;-87
2022/04/24 12:07:36;;;;;;;5.45;3.25;;;25.10;63.60;;;;;;5030654;28;20144;-89
2022/04/24 12:10:09;;;;;;;3.90;2.90;;;24.50;63.20;;;;;;5030978;28;20056;-88
2022/04/24 12:12:47;;;;;;;5.43;2.90;;;23.90;64.20;;;;;;5028847;28;20094;-85
2022/04/24 12:15:15;;;;;;;6.05;3.38;;;23.80;65.10;;;;;;5046582;28;20032;-86
2022/04/24 12:17:49;;;;;;;3.85;2.80;;;24.30;64.40;;;;;;5029417;28;20058;-86
2022/04/24 12:20:14;;;;;;;8.23;3.58;;;23.90;63.60;;;;;;5030090;28;20032;-85
2022/04/24 12:22:40;;;;;;;6.72;3.38;;;23.60;64.00;;;;;;5029449;28;20040;-84
2022/04/24 12:25:15;;;;;;;4.40;2.65;;;23.00;64.50;;;;;;5029525;28;20029;-85
2022/04/24 12:27:57;;;;;;;3.83;2.95;;;22.90;65.50;;;;;;5030560;28;20061;-83
2022/04/24 12:30:26;;;;;;;4.15;3.00;;;22.70;65.70;;;;;;5050148;28;20045;-83
2022/04/24 12:32:52;;;;;;;6.88;3.25;;;22.20;66.70;;;;;;5033992;28;20132;-87
2022/04/24 12:35:35;;;;;;;5.10;3.30;;;21.70;66.90;;;;;;5033733;28;20075;-85
2022/04/24 12:38:11;;;;;;;;;;;21.30;68.10;;;;;;5049046;28;20671;-86
2022/04/24 12:40:37;;;;;;;5.13;3.38;;;21.20;67.50;;;;;;5047442;28;20379;-86
2022/04/24 12:43:03;;;;;;;4.00;3.13;;;21.10;67.70;;;;;;5030047;28;20041;-88
2022/04/24 12:45:28;;;;;;;4.25;2.90;;;20.90;68.00;;;;;;5030494;28;20033;-87
2022/04/24 12:47:54;;;;;;;3.97;2.92;;;20.60;68.60;;;;;;5031015;28;20065;-88
2022/04/24 12:50:20;;;;;;;6.20;3.58;;;20.60;69.10;;;;;;5031905;28;20029;-87
2022/04/24 12:52:45;;;;;;;3.83;3.15;;;20.90;69.20;;;;;;5030788;28;20060;-85
2022/04/24 12:55:11;;;;;;;4.47;3.22;;;21.40;67.30;;;;;;5029760;28;20037;-84